createdAt,value
2022-08-20T00:00:02.941Z,100544.09
2022-08-20T00:02:42.317Z,100546.63
2022-08-20T00:05:15.150Z,100548.31
2022-08-20T00:07:44.960Z,100542.78
2022-08-20T00:10:15.108Z,100546.88
2022-08-20T00:12:47.384Z,100548.59
2022-08-20T00:15:21.752Z,100540.53
2022-08-20T00:17:52.421Z,100545.91
2022-08-20T00:20:27.542Z,100547.47
2022-08-20T00:22:57.340Z,100547.88
2022-08-20T00:25:31.524Z,100554.25
2022-08-20T00:28:03.753Z,100559.06
2022-08-20T00:30:34.440Z,100555.66
2022-08-20T00:33:06.484Z,100560.91
2022-08-20T00:35:40.743Z,100557.38
2022-08-20T00:38:10.484Z,100560.47
2022-08-20T00:40:43.211Z,100559.19
2022-08-20T00:43:29.744Z,100559.47
2022-08-20T00:45:59.996Z,100548.28
2022-08-20T00:48:33.236Z,100554.50
2022-08-20T00:51:08.516Z,100552.81
2022-08-20T00:53:39.025Z,100547.59
2022-08-20T00:56:10.371Z,100549.56
2022-08-20T00:58:42.919Z,100552.81
2022-08-20T01:01:12.719Z,100547.03
2022-08-20T01:03:42.612Z,100556.78
2022-08-20T01:06:14.922Z,100549.97
2022-08-20T01:08:44.954Z,100550.97
2022-08-20T01:11:16.766Z,100554.78
2022-08-20T01:13:48.550Z,100551.66
2022-08-20T01:16:23.212Z,100553.38
2022-08-20T01:18:53.456Z,100554.22
2022-08-20T01:21:28.311Z,100558.72
2022-08-20T01:24:00.718Z,100561.84
2022-08-20T01:26:34.614Z,100562.69
2022-08-20T01:29:08.021Z,100569.75
2022-08-20T01:31:40.888Z,100558.31
2022-08-20T01:34:12.864Z,100567.22
2022-08-20T01:36:46.456Z,100565.25
2022-08-20T01:39:19.206Z,100571.44
2022-08-20T01:41:58.196Z,100566.09
2022-08-20T01:44:28.047Z,100575.97
2022-08-20T01:47:00.958Z,100578.66
2022-08-20T01:49:34.850Z,100574.72
2022-08-20T01:52:09.576Z,100581.94
2022-08-20T01:54:39.271Z,100576.81
2022-08-20T01:57:15.550Z,100578.25
2022-08-20T01:59:45.927Z,100576.41
2022-08-20T02:02:15.984Z,100576.69
2022-08-20T02:04:45.669Z,100574.13
2022-08-20T02:07:18.319Z,100574.13
2022-08-20T02:09:48.972Z,100574.28
2022-08-20T02:12:21.499Z,100574.00
2022-08-20T02:14:53.827Z,100572.03
2022-08-20T02:17:25.564Z,100579.34
2022-08-20T02:19:57.634Z,100581.19
2022-08-20T02:22:30.219Z,100579.34
2022-08-20T02:25:00.012Z,100576.97
2022-08-20T02:27:33.709Z,100575.13
2022-08-20T02:30:05.126Z,100575.97
2022-08-20T02:32:36.187Z,100576.25
2022-08-20T02:35:08.726Z,100580.06
2022-08-20T02:37:39.233Z,100581.34
2022-08-20T02:40:11.313Z,100573.84
2022-08-20T02:42:44.175Z,100570.59
2022-08-20T02:45:19.057Z,100561.09
2022-08-20T02:47:49.714Z,100563.94
2022-08-20T02:50:22.384Z,100562.53
2022-08-20T02:52:52.469Z,100563.69
2022-08-20T02:55:25.328Z,100565.47
2022-08-20T02:58:01.019Z,100566.38
2022-08-20T03:00:38.157Z,100565.91
2022-08-20T03:03:10.326Z,100570.56
2022-08-20T03:05:41.465Z,100568.28
2022-08-20T03:08:12.965Z,100557.84
2022-08-20T03:10:44.290Z,100557.72
2022-08-20T03:13:18.520Z,100558.84
2022-08-20T03:15:53.239Z,100556.00
2022-08-20T03:18:26.278Z,100560.09
2022-08-20T03:20:55.901Z,100563.16
2022-08-20T03:23:25.646Z,100560.59
2022-08-20T03:25:55.700Z,100567.94
2022-08-20T03:28:28.047Z,100572.16
2022-08-20T03:30:59.442Z,100573.44
2022-08-20T03:33:29.963Z,100571.47
2022-08-20T03:35:59.589Z,100565.97
2022-08-20T03:38:33.203Z,100562.00
2022-08-20T03:41:03.723Z,100564.69
2022-08-20T03:46:23.410Z,100566.53
2022-08-20T03:48:56.727Z,100549.56
2022-08-20T03:51:34.397Z,100555.06
2022-08-20T03:54:22.771Z,100551.53
2022-08-20T03:56:52.489Z,100548.84
2022-08-20T03:59:24.899Z,100546.31
2022-08-20T04:01:55.077Z,100548.00
2022-08-20T04:04:24.984Z,100544.63
2022-08-20T04:06:55.825Z,100535.72
2022-08-20T04:09:25.621Z,100537.69
2022-08-20T04:12:00.947Z,100544.16
2022-08-20T04:14:33.363Z,100549.53
2022-08-20T04:17:07.750Z,100554.03
2022-08-20T04:19:38.873Z,100567.75
2022-08-20T04:22:08.638Z,100566.88
2022-08-20T04:24:38.544Z,100564.34
2022-08-20T04:27:08.699Z,100569.81
2022-08-20T04:29:44.545Z,100567.03
2022-08-20T04:32:17.997Z,100569.72
2022-08-20T04:34:51.433Z,100576.16
2022-08-20T04:37:24.002Z,100588.47
2022-08-20T04:40:06.210Z,100591.41
2022-08-20T04:42:35.996Z,100583.38
2022-08-20T04:45:10.106Z,100582.38
2022-08-20T04:47:39.836Z,100587.03
2022-08-20T04:50:11.866Z,100589.25
2022-08-20T04:52:41.899Z,100594.63
2022-08-20T04:55:12.945Z,100595.94
2022-08-20T04:57:42.634Z,100605.66
2022-08-20T05:00:18.543Z,100602.84
2022-08-20T05:02:48.288Z,100602.84
2022-08-20T05:05:18.584Z,100607.38
2022-08-20T05:07:49.163Z,100608.34
2022-08-20T05:10:20.623Z,100611.78
2022-08-20T05:12:56.900Z,100611.88
2022-08-20T05:15:29.602Z,100613.84
2022-08-20T05:18:04.739Z,100610.31
2022-08-20T05:20:39.877Z,100615.53
2022-08-20T05:23:11.449Z,100613.72
2022-08-20T05:25:41.844Z,100618.81
2022-08-20T05:28:13.567Z,100617.84
2022-08-20T05:30:47.908Z,100623.06
2022-08-20T05:33:19.994Z,100618.41
2022-08-20T05:35:52.379Z,100619.41
2022-08-20T05:38:24.248Z,100619.41
2022-08-20T05:40:54.982Z,100612.78
2022-08-20T05:43:24.944Z,100613.91
2022-08-20T05:45:58.152Z,100613.91
2022-08-20T05:48:28.511Z,100621.94
2022-08-20T05:50:58.644Z,100624.75
2022-08-20T05:53:28.568Z,100616.72
2022-08-20T05:55:58.861Z,100618.69
2022-08-20T05:58:32.895Z,100621.50
2022-08-20T06:01:05.484Z,100625.19
2022-08-20T06:03:47.650Z,100620.19
2022-08-20T06:06:38.843Z,100622.88
2022-08-20T06:09:07.381Z,100624.72
2022-08-20T06:11:37.556Z,100626.03
2022-08-20T06:14:07.622Z,100630.53
2022-08-20T06:16:39.935Z,100632.63
2022-08-20T06:19:27.265Z,100631.47
2022-08-20T06:22:02.280Z,100638.13
2022-08-20T06:24:38.477Z,100628.25
2022-08-20T06:27:09.220Z,100630.78
2022-08-20T06:29:39.087Z,100629.41
2022-08-20T06:32:11.516Z,100635.63
2022-08-20T06:34:50.173Z,100620.94
2022-08-20T06:37:23.238Z,100626.06
2022-08-20T06:39:58.057Z,100639.34
2022-08-20T06:42:27.841Z,100638.34
2022-08-20T06:44:59.601Z,100631.56
2022-08-20T06:47:31.820Z,100630.59
2022-08-20T06:50:01.542Z,100630.16
2022-08-20T06:52:51.726Z,100629.78
2022-08-20T06:55:21.363Z,100641.81
2022-08-20T06:57:55.425Z,100636.06
2022-08-20T07:00:25.290Z,100636.06
2022-08-20T07:02:58.092Z,100639.34
2022-08-20T07:05:27.887Z,100643.97
2022-08-20T07:07:57.851Z,100649.00
2022-08-20T07:12:57.353Z,100656.00
2022-08-20T07:15:28.515Z,100657.72
2022-08-20T07:18:04.146Z,100663.94
2022-08-20T07:20:36.688Z,100660.50
2022-08-20T07:23:06.851Z,100654.16
2022-08-20T07:25:37.160Z,100654.31
2022-08-20T07:28:08.952Z,100651.63
2022-08-20T07:30:56.797Z,100650.63
2022-08-20T07:33:31.610Z,100656.75
2022-08-20T07:36:04.029Z,100657.00
2022-08-20T07:38:35.341Z,100659.28
2022-08-20T07:41:07.392Z,100654.31
2022-08-20T07:43:37.808Z,100664.19
2022-08-20T07:46:09.354Z,100665.97
2022-08-20T07:48:46.295Z,100667.81
2022-08-20T07:51:17.902Z,100669.66
2022-08-20T07:53:48.585Z,100672.75
2022-08-20T07:56:21.357Z,100671.91
2022-08-20T07:58:52.412Z,100678.13
2022-08-20T08:01:25.690Z,100682.53
2022-08-20T08:03:58.165Z,100678.72
2022-08-20T08:06:31.146Z,100674.66
2022-08-20T08:09:06.006Z,100684.13
2022-08-20T08:11:37.912Z,100675.38
2022-08-20T08:16:39.916Z,100675.38
2022-08-20T08:19:14.336Z,100679.38
2022-08-20T08:21:44.283Z,100679.97
2022-08-20T08:24:19.989Z,100679.44
2022-08-20T08:26:52.537Z,100677.91
2022-08-20T08:29:22.372Z,100687.97
2022-08-20T08:31:52.041Z,100683.03
2022-08-20T08:34:25.336Z,100678.25
2022-08-20T08:36:55.550Z,100681.94
2022-08-20T08:39:25.795Z,100690.09
2022-08-20T08:42:05.233Z,100683.19
2022-08-20T08:44:38.682Z,100688.38
2022-08-20T08:47:14.534Z,100696.94
2022-08-20T08:49:48.045Z,100698.75
2022-08-20T08:52:23.056Z,100696.84
2022-08-20T08:54:56.928Z,100692.13
2022-08-20T08:57:29.064Z,100701.03
2022-08-20T09:00:04.840Z,100703.84
2022-08-20T09:02:36.320Z,100713.88
2022-08-20T09:05:17.788Z,100719.94
2022-08-20T09:07:51.015Z,100708.81
2022-08-20T09:10:23.550Z,100712.22
2022-08-20T09:12:53.560Z,100722.09
2022-08-20T09:15:24.118Z,100720.28
2022-08-20T09:17:53.875Z,100727.19
2022-08-20T09:20:27.120Z,100734.84
2022-08-20T09:22:57.374Z,100734.81
2022-08-20T09:25:27.394Z,100729.91
2022-08-20T09:27:57.211Z,100732.75
2022-08-20T09:30:26.939Z,100734.00
2022-08-20T09:32:56.957Z,100731.88
2022-08-20T09:35:29.464Z,100724.81
2022-08-20T09:37:59.311Z,100732.34
2022-08-20T09:40:29.628Z,100736.19
2022-08-20T09:42:59.429Z,100731.97
2022-08-20T09:45:29.273Z,100735.78
2022-08-20T09:47:59.015Z,100735.91
2022-08-20T09:50:35.800Z,100737.88
2022-08-20T09:53:07.233Z,100737.31
2022-08-20T09:55:38.699Z,100735.56
2022-08-20T09:58:11.772Z,100746.75
2022-08-20T10:00:41.658Z,100740.72
2022-08-20T10:03:11.451Z,100744.69
2022-08-20T10:05:43.827Z,100748.94
2022-08-20T10:08:14.802Z,100747.25
2022-08-20T10:10:44.686Z,100744.97
2022-08-20T10:13:15.407Z,100746.41
2022-08-20T10:15:45.621Z,100748.13
2022-08-20T10:18:15.304Z,100753.34
2022-08-20T10:20:47.659Z,100753.94
2022-08-20T10:23:17.415Z,100753.09
2022-08-20T10:25:47.119Z,100753.19
2022-08-20T10:28:16.880Z,100754.66
2022-08-20T10:30:47.030Z,100745.22
2022-08-20T10:33:16.707Z,100751.00
2022-08-20T10:35:49.069Z,100750.16
2022-08-20T10:38:20.308Z,100749.66
2022-08-20T10:40:52.550Z,100752.19
2022-08-20T10:43:22.657Z,100750.66
2022-08-20T10:45:53.815Z,100759.03
2022-08-20T10:48:24.706Z,100751.97
2022-08-20T10:50:57.087Z,100752.25
2022-08-20T10:53:26.748Z,100761.56
2022-08-20T10:55:57.632Z,100749.69
2022-08-20T10:58:37.523Z,100749.81
2022-08-20T11:01:09.826Z,100748.13
2022-08-20T11:03:39.559Z,100749.41
2022-08-20T11:06:11.956Z,100754.66
2022-08-20T11:08:42.868Z,100758.47
2022-08-20T11:11:12.699Z,100755.09
2022-08-20T11:13:42.499Z,100753.69
2022-08-20T11:16:12.328Z,100748.72
2022-08-20T11:18:47.669Z,100756.09
2022-08-20T11:21:20.190Z,100762.75
2022-08-20T11:23:49.943Z,100762.47
2022-08-20T11:26:24.197Z,100766.88
2022-08-20T11:28:54.134Z,100757.25
2022-08-20T11:31:23.836Z,100763.47
2022-08-20T11:33:53.577Z,100758.81
2022-08-20T11:36:26.761Z,100762.19
2022-08-20T11:38:56.433Z,100764.19
2022-08-20T11:41:26.177Z,100760.69
2022-08-20T11:44:19.951Z,100776.06
2022-08-20T11:46:45.469Z,100774.66
2022-08-20T11:49:15.286Z,100778.03
2022-08-20T11:51:49.522Z,100773.38
2022-08-20T11:54:20.121Z,100769.88
2022-08-20T11:56:51.009Z,100769.00
2022-08-20T11:59:20.998Z,100768.69
2022-08-20T12:02:02.845Z,100765.88
2022-08-20T12:04:35.016Z,100778.59
2022-08-20T12:07:14.208Z,100771.47
2022-08-20T12:09:51.193Z,100767.22
2022-08-20T12:12:23.460Z,100759.94
2022-08-20T12:14:53.219Z,100755.66
2022-08-20T12:17:25.474Z,100757.75
2022-08-20T12:19:57.148Z,100757.44
2022-08-20T12:22:29.502Z,100754.00
2022-08-20T12:24:59.540Z,100746.63
2022-08-20T12:27:30.910Z,100751.72
2022-08-20T12:30:03.043Z,100747.72
2022-08-20T12:32:34.052Z,100746.69
2022-08-20T12:35:03.813Z,100750.97
2022-08-20T12:37:36.731Z,100748.38
2022-08-20T12:40:09.659Z,100743.34
2022-08-20T12:42:39.880Z,100750.44
2022-08-20T12:45:11.181Z,100741.91
2022-08-20T12:47:45.020Z,100742.31
2022-08-20T12:50:16.942Z,100741.94
2022-08-20T12:52:50.342Z,100746.66
2022-08-20T12:55:22.090Z,100739.03
2022-08-20T12:57:53.917Z,100738.09
2022-08-20T13:00:26.398Z,100735.91
2022-08-20T13:02:57.758Z,100733.59
2022-08-20T13:05:27.796Z,100733.84
2022-08-20T13:08:00.968Z,100736.03
2022-08-20T13:10:32.301Z,100729.69
2022-08-20T13:13:03.172Z,100739.91
2022-08-20T13:15:33.202Z,100737.91
2022-08-20T13:18:04.523Z,100731.41
2022-08-20T13:20:35.002Z,100738.66
2022-08-20T13:23:08.008Z,100734.53
2022-08-20T13:25:37.807Z,100733.28
2022-08-20T13:28:08.646Z,100724.84
2022-08-20T13:30:41.004Z,100731.69
2022-08-20T13:33:10.721Z,100712.22
2022-08-20T13:35:40.420Z,100714.91
2022-08-20T13:38:12.671Z,100713.69
2022-08-20T13:40:42.398Z,100716.13
2022-08-20T13:43:12.320Z,100708.59
2022-08-20T13:45:42.326Z,100717.53
2022-08-20T13:48:15.129Z,100714.19
2022-08-20T13:50:46.831Z,100729.19
2022-08-20T13:53:19.967Z,100720.53
2022-08-20T13:55:49.591Z,100719.69
2022-08-20T13:58:21.698Z,100712.44
2022-08-20T14:00:52.274Z,100726.94
2022-08-20T14:03:25.252Z,100723.56
2022-08-20T14:05:55.495Z,100723.00
2022-08-20T14:08:27.911Z,100731.25
2022-08-20T14:10:57.625Z,100734.66
2022-08-20T14:13:29.262Z,100724.56
2022-08-20T14:15:59.162Z,100726.25
2022-08-20T14:18:28.846Z,100720.53
2022-08-20T14:20:58.549Z,100719.00
2022-08-20T14:23:31.019Z,100726.47
2022-08-20T14:26:06.560Z,100727.00
2022-08-20T14:28:36.205Z,100732.72
2022-08-20T14:31:05.928Z,100730.88
2022-08-20T14:33:36.264Z,100731.16
2022-08-20T14:36:07.424Z,100722.22
2022-08-20T14:38:45.051Z,100724.78
2022-08-20T14:41:14.875Z,100721.00
2022-08-20T14:43:44.541Z,100717.69
2022-08-20T14:46:14.409Z,100721.06
2022-08-20T14:48:44.164Z,100716.69
2022-08-20T14:51:13.855Z,100729.63
2022-08-20T14:53:46.985Z,100712.91
2022-08-20T14:56:18.012Z,100712.50
2022-08-20T14:58:47.682Z,100709.13
2022-08-20T15:01:17.424Z,100718.56
2022-08-20T15:03:47.134Z,100719.84
2022-08-20T15:06:21.799Z,100722.03
2022-08-20T15:08:54.543Z,100716.31
2022-08-20T15:11:24.230Z,100715.84
2022-08-20T15:13:54.350Z,100714.97
2022-08-20T15:16:24.113Z,100725.47
2022-08-20T15:18:59.765Z,100716.91
2022-08-20T15:21:29.850Z,100718.13
2022-08-20T15:24:19.378Z,100714.50
2022-08-20T15:26:49.665Z,100707.63
2022-08-20T15:29:23.112Z,100709.72
2022-08-20T15:31:53.358Z,100710.06
2022-08-20T15:34:23.021Z,100715.38
2022-08-20T15:36:52.678Z,100716.03
2022-08-20T15:39:25.010Z,100712.84
2022-08-20T15:41:54.668Z,100714.41
2022-08-20T15:44:24.360Z,100711.38
2022-08-20T15:46:54.096Z,100720.03
2022-08-20T15:49:23.858Z,100719.53
2022-08-20T15:51:53.580Z,100720.72
2022-08-20T15:54:27.230Z,100716.31
2022-08-20T15:57:04.375Z,100716.94
2022-08-20T15:59:53.121Z,100714.56
2022-08-20T16:02:51.061Z,100714.94
2022-08-20T16:05:29.009Z,100716.63
2022-08-20T16:08:08.690Z,100718.19
2022-08-20T16:10:50.761Z,100717.31
2022-08-20T16:13:27.984Z,100712.91
2022-08-20T16:15:58.736Z,100713.75
2022-08-20T16:18:31.120Z,100705.53
2022-08-20T16:21:03.754Z,100710.91
2022-08-20T16:23:35.790Z,100704.81
2022-08-20T16:26:18.258Z,100699.41
2022-08-20T16:28:55.838Z,100700.41
2022-08-20T16:31:28.465Z,100704.81
2022-08-20T16:34:04.946Z,100703.28
2022-08-20T16:37:03.220Z,100706.47
2022-08-20T16:39:40.316Z,100711.75
2022-08-20T16:42:13.411Z,100704.16
2022-08-20T16:44:45.755Z,100704.63
2022-08-20T16:47:19.346Z,100707.63
2022-08-20T16:49:52.676Z,100708.94
2022-08-20T16:52:22.691Z,100705.03
2022-08-20T16:54:52.441Z,100703.19
2022-08-20T16:57:24.840Z,100705.56
2022-08-20T17:00:01.010Z,100700.16
2022-08-20T17:02:30.753Z,100697.47
2022-08-20T17:05:06.517Z,100697.47
2022-08-20T17:07:46.448Z,100697.47
2022-08-20T17:10:23.247Z,100697.94
2022-08-20T17:13:02.551Z,100694.25
2022-08-20T17:15:35.134Z,100701.34
2022-08-20T17:18:20.894Z,100696.09
2022-08-20T17:20:50.687Z,100698.78
2022-08-20T17:23:22.515Z,100698.41
2022-08-20T17:26:01.077Z,100703.13
2022-08-20T17:28:35.604Z,100705.59
2022-08-20T17:31:05.687Z,100706.75
2022-08-20T17:33:37.805Z,100709.06
2022-08-20T17:36:13.058Z,100716.47
2022-08-20T17:38:48.876Z,100716.91
2022-08-20T17:41:21.726Z,100719.25
2022-08-20T17:43:59.812Z,100720.53
2022-08-20T17:46:30.693Z,100720.31
2022-08-20T17:49:01.912Z,100716.22
2022-08-20T17:51:36.653Z,100718.97
2022-08-20T17:54:14.151Z,100723.81
2022-08-20T17:56:46.290Z,100729.09
2022-08-20T17:59:59.496Z,100734.25
2022-08-20T18:02:12.894Z,100734.84
2022-08-20T18:04:42.723Z,100730.59
2022-08-20T18:07:17.931Z,100731.91
2022-08-20T18:09:53.702Z,100735.47
2022-08-20T18:12:33.950Z,100735.06
2022-08-20T18:15:11.353Z,100733.41
2022-08-20T18:18:09.475Z,100744.09
2022-08-20T18:20:46.328Z,100742.81
2022-08-20T18:23:19.099Z,100746.22
2022-08-20T18:25:50.436Z,100750.75
2022-08-20T18:28:25.437Z,100751.91
2022-08-20T18:31:00.080Z,100753.88
2022-08-20T18:33:32.458Z,100752.34
2022-08-20T18:36:11.890Z,100761.84
2022-08-20T18:38:44.153Z,100760.97
2022-08-20T18:41:17.944Z,100761.72
2022-08-20T18:43:47.755Z,100760.47
2022-08-20T18:46:23.832Z,100768.69
2022-08-20T18:48:55.619Z,100774.41
2022-08-20T18:51:31.277Z,100771.56
2022-08-20T18:54:01.244Z,100774.34
2022-08-20T18:56:36.403Z,100775.06
2022-08-20T18:59:09.599Z,100772.22
2022-08-20T19:01:43.618Z,100768.41
2022-08-20T19:04:29.651Z,100770.81
2022-08-20T19:07:02.221Z,100771.78
2022-08-20T19:09:55.360Z,100772.47
2022-08-20T19:13:01.446Z,100774.03
2022-08-20T19:15:34.138Z,100775.28
2022-08-20T19:18:11.944Z,100778.09
2022-08-20T19:20:44.369Z,100778.66
2022-08-20T19:23:16.892Z,100768.28
2022-08-20T19:25:54.417Z,100775.91
2022-08-20T19:28:28.396Z,100776.69
2022-08-20T19:30:58.658Z,100770.19
2022-08-20T19:33:32.763Z,100775.50
2022-08-20T19:36:16.252Z,100771.25
2022-08-20T19:38:51.098Z,100770.81
2022-08-20T19:41:30.859Z,100784.88
2022-08-20T19:44:01.548Z,100779.63
2022-08-20T19:46:33.431Z,100781.97
2022-08-20T19:49:16.066Z,100785.44
2022-08-20T19:51:54.418Z,100779.84
2022-08-20T19:54:25.184Z,100782.06
2022-08-20T19:56:59.311Z,100789.81
2022-08-20T19:59:30.271Z,100791.88
2022-08-20T20:02:02.850Z,100802.19
2022-08-20T20:04:55.051Z,100794.78
2022-08-20T20:07:27.779Z,100788.47
2022-08-20T20:09:59.545Z,100795.22
2022-08-20T20:12:29.202Z,100795.00
2022-08-20T20:14:58.925Z,100795.94
2022-08-20T20:17:34.523Z,100803.66
2022-08-20T20:20:21.247Z,100812.22
2022-08-20T20:22:53.961Z,100815.38
2022-08-20T20:25:26.774Z,100812.59
2022-08-20T20:27:57.986Z,100819.06
2022-08-20T20:30:32.175Z,100815.03
2022-08-20T20:33:03.835Z,100814.41
2022-08-20T20:35:37.769Z,100812.47
2022-08-20T20:38:10.591Z,100817.38
2022-08-20T20:40:49.214Z,100813.94
2022-08-20T20:43:26.800Z,100813.47
2022-08-20T20:46:06.420Z,100808.63
2022-08-20T20:48:46.094Z,100809.84
2022-08-20T20:51:20.678Z,100807.41
2022-08-20T20:53:54.899Z,100806.94
2022-08-20T20:56:30.395Z,100806.44
2022-08-20T20:59:05.291Z,100812.97
2022-08-20T21:01:48.234Z,100802.66
2022-08-20T21:04:21.312Z,100804.72
2022-08-20T21:06:54.378Z,100803.47
2022-08-20T21:09:25.354Z,100811.03
2022-08-20T21:11:55.413Z,100799.66
2022-08-20T21:14:25.142Z,100808.94
2022-08-20T21:16:55.580Z,100812.19
2022-08-20T21:19:25.347Z,100805.50
2022-08-20T21:21:58.019Z,100809.38
2022-08-20T21:24:27.785Z,100806.31
2022-08-20T21:26:58.470Z,100805.81
2022-08-20T21:29:32.452Z,100805.09
2022-08-20T21:32:02.978Z,100802.88
2022-08-20T21:34:32.790Z,100803.25
2022-08-20T21:37:05.092Z,100801.75
2022-08-20T21:39:34.875Z,100799.44
2022-08-20T21:42:21.008Z,100804.63
2022-08-20T21:44:56.312Z,100807.78
2022-08-20T21:47:25.941Z,100811.63
2022-08-20T21:49:55.962Z,100815.88
2022-08-20T21:52:28.203Z,100814.53
2022-08-20T21:54:58.271Z,100806.25
2022-08-20T21:57:29.809Z,100807.31
2022-08-20T22:00:01.875Z,100811.28
2022-08-20T22:02:34.866Z,100813.94
2022-08-20T22:05:05.257Z,100816.22
2022-08-20T22:07:40.604Z,100812.03
2022-08-20T22:10:11.555Z,100819.75
2022-08-20T22:12:41.184Z,100822.44
2022-08-20T22:15:11.953Z,100821.94
2022-08-20T22:17:41.688Z,100818.31
2022-08-20T22:20:12.756Z,100805.38
2022-08-20T22:22:45.937Z,100809.16
2022-08-20T22:25:15.980Z,100808.72
2022-08-20T22:27:45.974Z,100808.97
2022-08-20T22:30:16.268Z,100809.81
2022-08-20T22:32:51.816Z,100808.31
2022-08-20T22:35:22.111Z,100815.78
2022-08-20T22:37:54.320Z,100811.41
2022-08-20T22:40:25.345Z,100825.13
2022-08-20T22:42:55.198Z,100825.31
2022-08-20T22:45:25.055Z,100820.44
2022-08-20T22:47:54.663Z,100823.09
2022-08-20T22:50:25.784Z,100830.16
2022-08-20T22:52:58.252Z,100825.66
2022-08-20T22:55:28.239Z,100826.63
2022-08-20T22:57:58.209Z,100817.78
2022-08-20T23:00:28.164Z,100812.44
2022-08-20T23:03:00.074Z,100813.41
2022-08-20T23:05:32.398Z,100815.19
2022-08-20T23:08:05.007Z,100812.44
2022-08-20T23:10:35.666Z,100813.28
2022-08-20T23:13:05.590Z,100822.25
2022-08-20T23:15:37.045Z,100818.50
2022-08-20T23:18:13.456Z,100807.94
2022-08-20T23:20:44.077Z,100812.50
2022-08-20T23:23:16.341Z,100813.41
2022-08-20T23:25:46.092Z,100803.97
2022-08-20T23:28:15.763Z,100808.56
2022-08-20T23:30:45.493Z,100810.72
2022-08-20T23:33:15.265Z,100803.78
2022-08-20T23:35:45.586Z,100808.13
2022-08-20T23:38:18.087Z,100808.25
2022-08-20T23:40:47.764Z,100798.78
2022-08-20T23:43:18.747Z,100795.44
2022-08-20T23:45:48.687Z,100799.81
2022-08-20T23:48:18.539Z,100798.66
2022-08-20T23:50:48.220Z,100798.78
2022-08-20T23:53:20.562Z,100793.53
2022-08-20T23:55:50.266Z,100799.72
2022-08-20T23:58:19.977Z,100796.31
